Time;durP1;ratioP1;P1;durP2;ratioP2;P2;SDS_P1;SDS_P2;PMS_P1;PMS_P2;Temp;Humidity;BMP_temperature;BMP_pressure;BME280_temperature;BME280_humidity;BME280_pressure;Samples;Min_cycle;Max_cycle;Signal;HPM_P1;HPM_P2
2024/03/13 03:31:34;;;;;;;1999.90;999.90;;;;;;;;;;5098759;23;20464;-70
2024/03/13 03:34:19;;;;;;;1999.90;999.90;;;;;;;;;;5032808;28;20202;-69
2024/03/13 03:37:04;;;;;;;1999.90;999.90;;;;;;;;;;5023846;28;20210;-69
2024/03/13 03:39:50;;;;;;;1999.90;999.90;;;;;;;;;;5037589;28;20247;-69
2024/03/13 03:42:36;;;;;;;1999.90;999.90;;;;;;;;;;5039590;28;20207;-71
2024/03/13 03:45:22;;;;;;;1999.90;999.90;;;;;;;;;;5025946;28;20242;-71
2024/03/13 03:48:08;;;;;;;1999.90;999.90;;;;;;;;;;5004214;28;20433;-71
2024/03/13 03:50:53;;;;;;;1999.90;999.90;;;;;;;;;;4994541;28;20817;-70
2024/03/13 03:53:38;;;;;;;1999.90;999.90;;;;;;;;;;5013923;28;20579;-71
2024/03/13 03:56:23;;;;;;;1999.90;999.90;;;;;;;;;;5014069;28;20206;-70
2024/03/13 03:59:08;;;;;;;1999.90;999.90;;;;;;;;;;5014113;28;20222;-70
2024/03/13 04:01:53;;;;;;;1999.90;999.90;;;;;;;;;;5014343;28;20698;-70
2024/03/13 04:04:38;;;;;;;1999.90;999.90;;;;;;;;;;5013916;28;20262;-71
2024/03/13 04:07:23;;;;;;;1999.90;999.90;;;;;;;;;;5014149;28;20332;-71
2024/03/13 04:10:08;;;;;;;1999.90;999.90;;;;;;;;;;5013549;28;20317;-71
2024/03/13 04:12:53;;;;;;;1999.90;999.90;;;;;;;;;;5013745;28;20212;-70
2024/03/13 04:15:38;;;;;;;1999.90;999.90;;;;;;;;;;5014319;28;20309;-70
2024/03/13 04:18:23;;;;;;;1999.90;999.90;;;;;;;;;;5013874;28;20207;-71
2024/03/13 04:21:08;;;;;;;1999.90;999.90;;;;;;;;;;5013538;28;20412;-70
2024/03/13 04:23:54;;;;;;;1999.90;999.90;;;;;;;;;;5013826;28;20222;-71
2024/03/13 04:26:40;;;;;;;1999.90;999.90;;;;;;;;;;5013922;28;20246;-70
2024/03/13 04:29:25;;;;;;;1999.90;999.90;;;;;;;;;;4995570;28;20211;-71
2024/03/13 04:32:10;;;;;;;1999.90;999.90;;;;;;;;;;4994204;28;20199;-70
2024/03/13 04:34:57;;;;;;;1999.90;999.90;;;;;;;;;;5013667;28;20206;-70
2024/03/13 04:37:43;;;;;;;1999.90;999.90;;;;;;;;;;5008451;28;20537;-71
2024/03/13 04:40:28;;;;;;;1999.90;999.90;;;;;;;;;;4993741;28;20364;-71
2024/03/13 04:43:13;;;;;;;1999.90;999.90;;;;;;;;;;4994573;28;20314;-70
2024/03/13 04:45:58;;;;;;;1999.90;999.90;;;;;;;;;;4994896;28;20581;-69
2024/03/13 04:48:44;;;;;;;1999.90;999.90;;;;;;;;;;5006287;28;20233;-69
2024/03/13 04:51:29;;;;;;;1999.90;999.90;;;;;;;;;;5012944;28;20257;-68
2024/03/13 04:54:16;;;;;;;1999.90;999.90;;;;;;;;;;5010701;28;20704;-69
2024/03/13 04:57:01;;;;;;;1999.90;999.90;;;;;;;;;;5013225;28;20291;-69
2024/03/13 04:59:46;;;;;;;1999.90;999.90;;;;;;;;;;4997113;28;20219;-69
2024/03/13 05:02:31;;;;;;;1999.90;999.90;;;;;;;;;;5009277;28;20213;-69
2024/03/13 05:05:16;;;;;;;1999.90;999.90;;;;;;;;;;4993071;28;20213;-69
2024/03/13 05:08:01;;;;;;;1999.90;999.90;;;;;;;;;;5002254;28;20686;-69
2024/03/13 05:10:46;;;;;;;1999.90;999.90;;;;;;;;;;4992836;28;20753;-69
2024/03/13 05:13:32;;;;;;;1999.90;999.90;;;;;;;;;;5003551;28;20424;-70
2024/03/13 05:16:18;;;;;;;1999.90;999.90;;;;;;;;;;5009375;28;20231;-69
2024/03/13 05:19:04;;;;;;;1999.90;999.90;;;;;;;;;;4993652;28;20211;-70
2024/03/13 05:21:49;;;;;;;1999.90;999.90;;;;;;;;;;4992217;28;20696;-70
2024/03/13 05:24:34;;;;;;;1999.90;999.90;;;;;;;;;;5008973;28;20215;-70
2024/03/13 05:27:19;;;;;;;1999.90;999.90;;;;;;;;;;5000995;28;20300;-69
2024/03/13 05:30:06;;;;;;;1999.90;999.90;;;;;;;;;;5011200;28;20435;-70
2024/03/13 05:32:51;;;;;;;1999.90;999.90;;;;;;;;;;5011253;28;20759;-69
2024/03/13 05:35:37;;;;;;;1999.90;999.90;;;;;;;;;;5011815;28;20320;-70
2024/03/13 05:38:23;;;;;;;1999.90;999.90;;;;;;;;;;5007295;28;20285;-70
2024/03/13 05:41:08;;;;;;;1999.90;999.90;;;;;;;;;;5011877;28;20228;-69
2024/03/13 05:43:53;;;;;;;1999.90;999.90;;;;;;;;;;5007787;28;20202;-69
2024/03/13 05:46:38;;;;;;;1999.90;999.90;;;;;;;;;;5011722;28;20214;-70
2024/03/13 05:49:23;;;;;;;1999.90;999.90;;;;;;;;;;4992378;28;20217;-69
2024/03/13 05:52:08;;;;;;;1999.90;999.90;;;;;;;;;;4997509;28;20319;-70
2024/03/13 05:54:53;;;;;;;1999.90;999.90;;;;;;;;;;4992143;28;20212;-70
2024/03/13 05:57:39;;;;;;;1999.90;999.90;;;;;;;;;;4996588;28;20293;-69
2024/03/13 06:00:25;;;;;;;1999.90;999.90;;;;;;;;;;5008855;28;20236;-70
2024/03/13 06:03:11;;;;;;;1999.90;999.90;;;;;;;;;;5001074;28;20789;-70
2024/03/13 06:05:56;;;;;;;1999.90;999.90;;;;;;;;;;5010859;28;20714;-70
2024/03/13 06:08:41;;;;;;;1999.90;999.90;;;;;;;;;;4997399;28;20692;-70
2024/03/13 06:11:27;;;;;;;1999.90;999.90;;;;;;;;;;4991523;28;20234;-70
2024/03/13 06:14:12;;;;;;;1999.90;999.90;;;;;;;;;;5008947;28;20723;-70
2024/03/13 06:16:57;;;;;;;1999.90;999.90;;;;;;;;;;5011294;28;20590;-70
2024/03/13 06:19:43;;;;;;;1999.90;999.90;;;;;;;;;;4991468;28;20726;-69
2024/03/13 06:22:28;;;;;;;1999.90;999.90;;;;;;;;;;4990676;28;20529;-70
2024/03/13 06:25:14;;;;;;;1999.90;999.90;;;;;;;;;;4991638;28;20341;-70
2024/03/13 06:29:55;;;;;;;1999.90;999.90;;;;;;;;;;4999718;28;20203;-70
2024/03/13 06:31:05;;;;;;;1999.90;999.90;;;;;;;;;;4997836;28;20609;-70
2024/03/13 06:33:52;;;;;;;1999.90;999.90;;;;;;;;;;5003929;28;20262;-70
2024/03/13 06:36:39;;;;;;;1999.90;999.90;;;;;;;;;;5011016;28;20794;-70
2024/03/13 06:39:24;;;;;;;1999.90;999.90;;;;;;;;;;5010841;28;20345;-70
2024/03/13 06:42:11;;;;;;;1999.90;999.90;;;;;;;;;;5011062;28;20690;-70
2024/03/13 06:44:56;;;;;;;1999.90;999.90;;;;;;;;;;5011147;28;20209;-69
2024/03/13 06:47:42;;;;;;;1999.90;999.90;;;;;;;;;;4995105;28;20261;-70
2024/03/13 06:50:27;;;;;;;1999.90;999.90;;;;;;;;;;5011066;28;20338;-70
2024/03/13 06:53:12;;;;;;;1999.90;999.90;;;;;;;;;;5010988;28;20210;-69
2024/03/13 06:55:57;;;;;;;1999.90;999.90;;;;;;;;;;5010504;28;20439;-70
2024/03/13 06:58:42;;;;;;;1999.90;999.90;;;;;;;;;;5010763;28;20210;-69
2024/03/13 07:01:28;;;;;;;1999.90;999.90;;;;;;;;;;5009384;28;20358;-70
2024/03/13 07:04:13;;;;;;;1999.90;999.90;;;;;;;;;;5001496;28;20572;-70
2024/03/13 07:06:59;;;;;;;1999.90;999.90;;;;;;;;;;5010952;28;20198;-70
2024/03/13 07:09:44;;;;;;;1999.90;999.90;;;;;;;;;;4991050;28;20227;-70
2024/03/13 07:12:29;;;;;;;1999.90;999.90;;;;;;;;;;4998309;28;20481;-70
2024/03/13 07:15:14;;;;;;;1999.90;999.90;;;;;;;;;;5001202;28;20214;-70
2024/03/13 07:17:59;;;;;;;1999.90;999.90;;;;;;;;;;4993790;28;20208;-69
2024/03/13 07:20:44;;;;;;;1999.90;999.90;;;;;;;;;;4992797;28;20246;-68
2024/03/13 07:23:29;;;;;;;1999.90;999.90;;;;;;;;;;4991003;28;20234;-68
2024/03/13 07:26:14;;;;;;;1999.90;999.90;;;;;;;;;;4991203;28;20208;-69
2024/03/13 07:28:59;;;;;;;1999.90;999.90;;;;;;;;;;4991362;28;20217;-68
2024/03/13 07:31:44;;;;;;;1999.90;999.90;;;;;;;;;;5005986;28;20608;-69
2024/03/13 07:34:29;;;;;;;1999.90;999.90;;;;;;;;;;5010583;28;20216;-68
2024/03/13 07:37:14;;;;;;;1999.90;999.90;;;;;;;;;;5010442;28;20206;-68
2024/03/13 07:39:59;;;;;;;1999.90;999.90;;;;;;;;;;5010524;28;20760;-69
2024/03/13 07:42:44;;;;;;;1999.90;999.90;;;;;;;;;;5010254;28;20208;-68
2024/03/13 07:45:29;;;;;;;1999.90;999.90;;;;;;;;;;5014087;28;20334;-69
2024/03/13 07:48:14;;;;;;;1999.90;999.90;;;;;;;;;;5012870;28;20426;-69
2024/03/13 07:50:59;;;;;;;1999.90;999.90;;;;;;;;;;5013992;28;20768;-69
2024/03/13 07:53:44;;;;;;;1999.90;999.90;;;;;;;;;;5013842;28;20583;-68
2024/03/13 07:56:29;;;;;;;1999.90;999.90;;;;;;;;;;5014070;28;20344;-69
2024/03/13 07:59:14;;;;;;;1999.90;999.90;;;;;;;;;;5014059;28;20209;-69
2024/03/13 08:01:59;;;;;;;1999.90;999.90;;;;;;;;;;5013912;28;20342;-69
2024/03/13 08:04:45;;;;;;;1999.90;999.90;;;;;;;;;;5012569;28;20400;-70
2024/03/13 08:07:31;;;;;;;1999.90;999.90;;;;;;;;;;5013763;28;20685;-69
2024/03/13 08:10:18;;;;;;;1999.90;999.90;;;;;;;;;;5013631;28;20232;-69
2024/03/13 08:13:03;;;;;;;1999.90;999.90;;;;;;;;;;5013462;28;20212;-70
2024/03/13 08:15:48;;;;;;;1999.90;999.90;;;;;;;;;;5013559;28;20233;-69
2024/03/13 08:18:33;;;;;;;1999.90;999.90;;;;;;;;;;5012959;28;20575;-69
2024/03/13 08:21:18;;;;;;;1999.90;999.90;;;;;;;;;;5012720;28;20222;-69
2024/03/13 08:24:03;;;;;;;1999.90;999.90;;;;;;;;;;5013127;28;20267;-69
2024/03/13 08:26:48;;;;;;;1999.90;999.90;;;;;;;;;;5013276;28;20357;-69
2024/03/13 08:29:33;;;;;;;1999.90;999.90;;;;;;;;;;5012895;28;20527;-69
2024/03/13 08:32:18;;;;;;;1999.90;999.90;;;;;;;;;;5012755;28;20368;-70
2024/03/13 08:35:03;;;;;;;1999.90;999.90;;;;;;;;;;5013057;28;20225;-69
2024/03/13 08:37:48;;;;;;;1999.90;999.90;;;;;;;;;;5012820;28;20260;-69
2024/03/13 08:40:33;;;;;;;1999.90;999.90;;;;;;;;;;5012837;28;20731;-69
2024/03/13 08:43:21;;;;;;;1999.90;999.90;;;;;;;;;;5012628;28;20327;-70
2024/03/13 08:46:07;;;;;;;1999.90;999.90;;;;;;;;;;5012048;28;20202;-70
2024/03/13 08:48:54;;;;;;;1999.90;999.90;;;;;;;;;;5012279;28;20198;-69
2024/03/13 08:51:40;;;;;;;1999.90;999.90;;;;;;;;;;5012506;28;20229;-70
2024/03/13 08:54:25;;;;;;;1999.90;999.90;;;;;;;;;;5012001;28;20208;-69
2024/03/13 08:57:10;;;;;;;1999.90;999.90;;;;;;;;;;5012635;28;20234;-69
2024/03/13 08:59:55;;;;;;;1999.90;999.90;;;;;;;;;;5012514;28;20245;-70
2024/03/13 09:02:40;;;;;;;1999.90;999.90;;;;;;;;;;5012140;28;20339;-70
2024/03/13 09:05:26;;;;;;;1999.90;999.90;;;;;;;;;;5012183;28;20576;-69
2024/03/13 09:08:13;;;;;;;1999.90;999.90;;;;;;;;;;5012450;28;20212;-69
2024/03/13 09:10:58;;;;;;;1999.90;999.90;;;;;;;;;;5011973;28;20233;-70
2024/03/13 09:13:44;;;;;;;1999.90;999.90;;;;;;;;;;5012077;28;20230;-70
2024/03/13 09:16:29;;;;;;;1999.90;999.90;;;;;;;;;;5012613;28;20336;-69
2024/03/13 09:19:14;;;;;;;1999.90;999.90;;;;;;;;;;5001023;28;20254;-69
2024/03/13 09:21:59;;;;;;;1999.90;999.90;;;;;;;;;;5008189;28;20208;-69
2024/03/13 09:24:44;;;;;;;1999.90;999.90;;;;;;;;;;5007665;28;20256;-69
2024/03/13 09:27:29;;;;;;;1999.90;999.90;;;;;;;;;;5007704;28;21021;-69
2024/03/13 09:30:14;;;;;;;1999.90;999.90;;;;;;;;;;5009753;28;20323;-69
2024/03/13 09:33:03;;;;;;;1999.90;999.90;;;;;;;;;;5009069;28;20214;-69
2024/03/13 09:35:48;;;;;;;1999.90;999.90;;;;;;;;;;5008552;28;20214;-69
2024/03/13 09:38:33;;;;;;;1999.90;999.90;;;;;;;;;;5007648;28;20238;-69
2024/03/13 09:41:18;;;;;;;1999.90;999.90;;;;;;;;;;5009796;28;20233;-70
2024/03/13 09:44:03;;;;;;;1999.90;999.90;;;;;;;;;;5009215;28;20224;-69
2024/03/13 09:46:48;;;;;;;1999.90;999.90;;;;;;;;;;5010035;28;20325;-69
2024/03/13 09:49:33;;;;;;;1999.90;999.90;;;;;;;;;;5009042;28;20732;-70
2024/03/13 09:52:18;;;;;;;1999.90;999.90;;;;;;;;;;5009166;28;20221;-69
2024/03/13 09:55:03;;;;;;;1999.90;999.90;;;;;;;;;;5007582;28;20212;-69
2024/03/13 09:57:49;;;;;;;1999.90;999.90;;;;;;;;;;5009494;28;20217;-69
2024/03/13 10:00:34;;;;;;;1999.90;999.90;;;;;;;;;;5009163;28;20224;-70
2024/03/13 10:03:19;;;;;;;1999.90;999.90;;;;;;;;;;5007144;28;20257;-70
2024/03/13 10:06:05;;;;;;;1999.90;999.90;;;;;;;;;;5008600;28;20218;-69
2024/03/13 10:08:49;;;;;;;1999.90;999.90;;;;;;;;;;5008647;28;20286;-69
2024/03/13 10:11:35;;;;;;;1999.90;999.90;;;;;;;;;;5007844;28;20582;-69
2024/03/13 10:14:20;;;;;;;1999.90;999.90;;;;;;;;;;5006638;28;20294;-69
2024/03/13 10:17:05;;;;;;;1999.90;999.90;;;;;;;;;;5008970;28;20210;-69
2024/03/13 10:19:51;;;;;;;1999.90;999.90;;;;;;;;;;5009001;28;20230;-69
2024/03/13 10:22:36;;;;;;;1999.90;999.90;;;;;;;;;;5008731;28;20209;-70
2024/03/13 10:25:21;;;;;;;1999.90;999.90;;;;;;;;;;5008986;28;20702;-70
2024/03/13 10:28:07;;;;;;;1999.90;999.90;;;;;;;;;;5008538;28;20296;-70
2024/03/13 10:30:53;;;;;;;1999.90;999.90;;;;;;;;;;5009101;28;20240;-71
2024/03/13 10:33:38;;;;;;;1999.90;999.90;;;;;;;;;;5008816;28;20213;-70
2024/03/13 10:36:23;;;;;;;1999.90;999.90;;;;;;;;;;5007040;28;20424;-70
2024/03/13 10:39:08;;;;;;;1999.90;999.90;;;;;;;;;;5008667;28;20900;-70
2024/03/13 10:41:53;;;;;;;1999.90;999.90;;;;;;;;;;5008413;28;20280;-70
2024/03/13 10:44:38;;;;;;;1999.90;999.90;;;;;;;;;;5008443;28;20213;-70
2024/03/13 10:47:23;;;;;;;1999.90;999.90;;;;;;;;;;5008964;28;20201;-70
2024/03/13 10:50:09;;;;;;;1999.90;999.90;;;;;;;;;;5007470;28;20240;-69
2024/03/13 10:52:54;;;;;;;1999.90;999.90;;;;;;;;;;5006530;28;20405;-69
2024/03/13 10:55:39;;;;;;;1999.90;999.90;;;;;;;;;;5006355;28;20260;-69
2024/03/13 10:58:24;;;;;;;1999.90;999.90;;;;;;;;;;5006463;28;20218;-70
2024/03/13 11:01:11;;;;;;;1999.90;999.90;;;;;;;;;;5008809;28;20611;-70
2024/03/13 11:04:00;;;;;;;1999.90;999.90;;;;;;;;;;5008348;28;20308;-70
2024/03/13 11:06:45;;;;;;;1999.90;999.90;;;;;;;;;;5009054;28;20611;-70
2024/03/13 11:09:30;;;;;;;1999.90;999.90;;;;;;;;;;5006780;28;20288;-70
2024/03/13 11:12:19;;;;;;;1999.90;999.90;;;;;;;;;;5006297;28;20229;-71
2024/03/13 11:15:04;;;;;;;1999.90;999.90;;;;;;;;;;5007419;28;20305;-69
2024/03/13 11:17:51;;;;;;;1999.90;999.90;;;;;;;;;;5006450;28;20696;-69
2024/03/13 11:20:37;;;;;;;1999.90;999.90;;;;;;;;;;5011644;28;20230;-69
2024/03/13 11:23:22;;;;;;;1999.90;999.90;;;;;;;;;;5012463;28;20691;-70
2024/03/13 11:26:09;;;;;;;1999.90;999.90;;;;;;;;;;5012582;28;20237;-71
2024/03/13 11:28:54;;;;;;;1999.90;999.90;;;;;;;;;;5010935;28;20407;-69
2024/03/13 11:31:39;;;;;;;1999.90;999.90;;;;;;;;;;5009678;28;20280;-70
2024/03/13 11:34:24;;;;;;;1999.90;999.90;;;;;;;;;;5012140;28;20214;-70
2024/03/13 11:37:10;;;;;;;1999.90;999.90;;;;;;;;;;5012513;28;20681;-70
2024/03/13 11:39:57;;;;;;;1999.90;999.90;;;;;;;;;;5011981;28;20320;-69
2024/03/13 11:42:43;;;;;;;1999.90;999.90;;;;;;;;;;5010990;28;20201;-70
2024/03/13 11:45:30;;;;;;;1999.90;999.90;;;;;;;;;;5008315;28;20212;-71
2024/03/13 11:48:15;;;;;;;1999.90;999.90;;;;;;;;;;5011700;28;20226;-69
2024/03/13 11:51:07;;;;;;;1999.90;999.90;;;;;;;;;;5012149;28;20592;-71
2024/03/13 11:53:52;;;;;;;1999.90;999.90;;;;;;;;;;5011296;28;20568;-69
2024/03/13 11:56:37;;;;;;;1999.90;999.90;;;;;;;;;;5012089;28;20214;-70
2024/03/13 11:59:26;;;;;;;1999.90;999.90;;;;;;;;;;5011078;28;20218;-70
2024/03/13 12:02:30;;;;;;;1999.90;999.90;;;;;;;;;;5011824;28;20687;-67
2024/03/13 12:05:29;;;;;;;1999.90;999.90;;;;;;;;;;5011434;28;20322;-70
2024/03/13 12:08:14;;;;;;;1999.90;999.90;;;;;;;;;;5011236;28;20752;-71
2024/03/13 12:11:00;;;;;;;1999.90;999.90;;;;;;;;;;5011375;28;20611;-70
2024/03/13 12:13:45;;;;;;;1999.90;999.90;;;;;;;;;;5008379;28;20210;-70
2024/03/13 12:16:30;;;;;;;1999.90;999.90;;;;;;;;;;5007645;28;20218;-70
2024/03/13 12:19:17;;;;;;;1999.90;999.90;;;;;;;;;;5009847;28;20420;-71
2024/03/13 12:22:03;;;;;;;1999.90;999.90;;;;;;;;;;5011453;28;20613;-70
2024/03/13 12:24:48;;;;;;;1999.90;999.90;;;;;;;;;;5009435;28;20843;-70
2024/03/13 12:27:33;;;;;;;1999.90;999.90;;;;;;;;;;5011059;28;20245;-70
2024/03/13 12:30:18;;;;;;;1999.90;999.90;;;;;;;;;;5010613;28;20321;-70
2024/03/13 12:33:05;;;;;;;1999.90;999.90;;;;;;;;;;5012890;28;20600;-70
2024/03/13 12:35:56;;;;;;;1999.90;999.90;;;;;;;;;;5013339;28;20206;-70
2024/03/13 12:38:42;;;;;;;1999.90;999.90;;;;;;;;;;5013517;28;20209;-71
2024/03/13 12:41:28;;;;;;;1999.90;999.90;;;;;;;;;;5012828;28;20598;-69
2024/03/13 12:44:13;;;;;;;1999.90;999.90;;;;;;;;;;5013010;28;20577;-69
2024/03/13 12:46:58;;;;;;;1999.90;999.90;;;;;;;;;;5013326;28;20206;-70
2024/03/13 12:49:45;;;;;;;1999.90;999.90;;;;;;;;;;5012900;28;20233;-69
2024/03/13 12:52:30;;;;;;;1999.90;999.90;;;;;;;;;;5012577;28;20237;-71
2024/03/13 12:55:17;;;;;;;1999.90;999.90;;;;;;;;;;5013355;28;20340;-71
2024/03/13 12:58:05;;;;;;;1999.90;999.90;;;;;;;;;;4993066;28;20202;-70
2024/03/13 13:00:50;;;;;;;1999.90;999.90;;;;;;;;;;4993250;28;20691;-70
2024/03/13 13:03:35;;;;;;;1999.90;999.90;;;;;;;;;;4993027;28;20202;-71
2024/03/13 13:06:21;;;;;;;1999.90;999.90;;;;;;;;;;4993087;28;20231;-70
2024/03/13 13:09:07;;;;;;;1999.90;999.90;;;;;;;;;;4993009;28;20286;-70
2024/03/13 13:11:53;;;;;;;1999.90;999.90;;;;;;;;;;5006330;28;20794;-70
2024/03/13 13:14:37;;;;;;;1999.90;999.90;;;;;;;;;;5012256;28;20222;-70
2024/03/13 13:17:24;;;;;;;1999.90;999.90;;;;;;;;;;5012361;28;20373;-70
2024/03/13 13:20:11;;;;;;;1999.90;999.90;;;;;;;;;;5012465;28;20740;-71
2024/03/13 13:22:56;;;;;;;1999.90;999.90;;;;;;;;;;5012291;28;20206;-68
2024/03/13 13:25:41;;;;;;;1999.90;999.90;;;;;;;;;;5012220;28;20264;-70
2024/03/13 13:28:28;;;;;;;1999.90;999.90;;;;;;;;;;5012466;28;20209;-70
2024/03/13 13:31:16;;;;;;;1999.90;999.90;;;;;;;;;;5011857;28;20367;-71
2024/03/13 13:34:00;;;;;;;1999.90;999.90;;;;;;;;;;5008528;28;20254;-69
2024/03/13 13:36:47;;;;;;;1999.90;999.90;;;;;;;;;;5009529;28;20211;-70
2024/03/13 13:39:32;;;;;;;1999.90;999.90;;;;;;;;;;5010259;28;20373;-70
2024/03/13 13:42:17;;;;;;;1999.90;999.90;;;;;;;;;;5008187;28;20308;-70
2024/03/13 13:45:03;;;;;;;1999.90;999.90;;;;;;;;;;5009205;28;20497;-69
2024/03/13 13:47:48;;;;;;;1999.90;999.90;;;;;;;;;;5007771;28;20217;-70
2024/03/13 13:50:34;;;;;;;1999.90;999.90;;;;;;;;;;5006855;28;20238;-69
2024/03/13 13:53:19;;;;;;;1999.90;999.90;;;;;;;;;;5009476;28;20254;-70
2024/03/13 13:56:04;;;;;;;1999.90;999.90;;;;;;;;;;5009412;28;20237;-70
2024/03/13 13:58:50;;;;;;;1999.90;999.90;;;;;;;;;;5007368;28;20220;-70
2024/03/13 14:01:36;;;;;;;1999.90;999.90;;;;;;;;;;5008485;28;20470;-69
2024/03/13 14:04:21;;;;;;;1999.90;999.90;;;;;;;;;;5008689;28;20254;-70
2024/03/13 14:07:07;;;;;;;1999.90;999.90;;;;;;;;;;5009363;28;20207;-70
2024/03/13 14:09:53;;;;;;;1999.90;999.90;;;;;;;;;;5006535;28;20231;-71
2024/03/13 14:12:38;;;;;;;1999.90;999.90;;;;;;;;;;5009383;28;20223;-69
2024/03/13 14:15:23;;;;;;;1999.90;999.90;;;;;;;;;;5008799;28;20203;-70
2024/03/13 14:18:09;;;;;;;1999.90;999.90;;;;;;;;;;5008590;28;20633;-70
2024/03/13 14:20:54;;;;;;;1999.90;999.90;;;;;;;;;;5008270;28;20324;-69
2024/03/13 14:23:39;;;;;;;1999.90;999.90;;;;;;;;;;5008660;28;20581;-70
2024/03/13 14:26:25;;;;;;;1999.90;999.90;;;;;;;;;;5008818;28;20292;-70
2024/03/13 14:29:13;;;;;;;1999.90;999.90;;;;;;;;;;5009695;28;20292;-69
2024/03/13 14:31:58;;;;;;;1999.90;999.90;;;;;;;;;;5006332;28;20227;-70
2024/03/13 14:34:43;;;;;;;1999.90;999.90;;;;;;;;;;5008629;28;20299;-68
2024/03/13 14:37:29;;;;;;;1999.90;999.90;;;;;;;;;;5006577;28;20794;-70
2024/03/13 14:40:16;;;;;;;1999.90;999.90;;;;;;;;;;5008094;28;20277;-71
2024/03/13 14:43:03;;;;;;;1999.90;999.90;;;;;;;;;;5008013;28;20210;-69
2024/03/13 14:45:48;;;;;;;1999.90;999.90;;;;;;;;;;5004711;28;20690;-69
2024/03/13 14:48:33;;;;;;;1999.90;999.90;;;;;;;;;;5006180;28;20206;-69
2024/03/13 14:51:18;;;;;;;1999.90;999.90;;;;;;;;;;5006122;28;20226;-70
2024/03/13 14:54:05;;;;;;;1999.90;999.90;;;;;;;;;;5011673;28;20563;-70
2024/03/13 14:56:53;;;;;;;1999.90;999.90;;;;;;;;;;5013034;28;20265;-70
2024/03/13 14:59:39;;;;;;;1999.90;999.90;;;;;;;;;;5011173;28;20221;-70
2024/03/13 15:02:24;;;;;;;1999.90;999.90;;;;;;;;;;5013381;28;20297;-69
2024/03/13 15:05:09;;;;;;;1999.90;999.90;;;;;;;;;;5011067;28;20213;-70
2024/03/13 15:07:54;;;;;;;1999.90;999.90;;;;;;;;;;5012289;28;20230;-70
2024/03/13 15:10:39;;;;;;;1999.90;999.90;;;;;;;;;;5013426;28;20226;-71
2024/03/13 15:13:24;;;;;;;1999.90;999.90;;;;;;;;;;5010849;28;20226;-70
2024/03/13 15:16:10;;;;;;;1999.90;999.90;;;;;;;;;;5012227;28;20261;-70
2024/03/13 15:18:55;;;;;;;1999.90;999.90;;;;;;;;;;5012543;28;20300;-70
2024/03/13 15:21:40;;;;;;;1999.90;999.90;;;;;;;;;;5010656;28;20202;-69
2024/03/13 15:24:25;;;;;;;1999.90;999.90;;;;;;;;;;5011564;28;20207;-70
2024/03/13 15:27:11;;;;;;;1999.90;999.90;;;;;;;;;;5009697;28;20210;-70
2024/03/13 15:29:56;;;;;;;1999.90;999.90;;;;;;;;;;5011335;28;20308;-70
2024/03/13 15:32:41;;;;;;;1999.90;999.90;;;;;;;;;;5011342;28;20225;-70
2024/03/13 15:35:26;;;;;;;1999.90;999.90;;;;;;;;;;5010731;28;20210;-70
2024/03/13 15:38:12;;;;;;;1999.90;999.90;;;;;;;;;;5011434;28;20698;-70
2024/03/13 15:40:57;;;;;;;1999.90;999.90;;;;;;;;;;5010655;28;20730;-70
2024/03/13 15:43:42;;;;;;;1999.90;999.90;;;;;;;;;;5010915;28;20408;-70
2024/03/13 15:46:27;;;;;;;1999.90;999.90;;;;;;;;;;5011167;28;20214;-70
2024/03/13 15:49:12;;;;;;;1999.90;999.90;;;;;;;;;;5009890;28;20218;-70
2024/03/13 15:51:58;;;;;;;1999.90;999.90;;;;;;;;;;5011618;28;20226;-71
2024/03/13 15:54:44;;;;;;;1999.90;999.90;;;;;;;;;;5011819;28;20285;-70
2024/03/13 15:57:29;;;;;;;1999.90;999.90;;;;;;;;;;5012001;28;20272;-70
2024/03/13 16:00:18;;;;;;;1999.90;999.90;;;;;;;;;;5012094;28;20250;-70
2024/03/13 16:03:04;;;;;;;1999.90;999.90;;;;;;;;;;5011775;28;20194;-70
2024/03/13 16:05:49;;;;;;;1999.90;999.90;;;;;;;;;;5011135;28;20209;-69
2024/03/13 16:08:34;;;;;;;1999.90;999.90;;;;;;;;;;5011458;28;20266;-69
2024/03/13 16:11:23;;;;;;;1999.90;999.90;;;;;;;;;;5011904;28;20265;-70
2024/03/13 16:14:08;;;;;;;1999.90;999.90;;;;;;;;;;5011503;28;20705;-69
2024/03/13 16:16:53;;;;;;;1999.90;999.90;;;;;;;;;;5011434;28;20586;-68
2024/03/13 16:19:38;;;;;;;1999.90;999.90;;;;;;;;;;5011998;28;20834;-69
2024/03/13 16:22:23;;;;;;;1999.90;999.90;;;;;;;;;;5011546;28;20323;-67
2024/03/13 16:25:08;;;;;;;1999.90;999.90;;;;;;;;;;5010893;28;20215;-69
2024/03/13 16:27:53;;;;;;;1999.90;999.90;;;;;;;;;;5011722;28;20209;-69
2024/03/13 16:30:38;;;;;;;1999.90;999.90;;;;;;;;;;5010061;28;20234;-67
2024/03/13 16:33:24;;;;;;;1999.90;999.90;;;;;;;;;;5008959;28;20419;-69
2024/03/13 16:36:09;;;;;;;1999.90;999.90;;;;;;;;;;5011730;28;20235;-70
2024/03/13 16:38:56;;;;;;;1999.90;999.90;;;;;;;;;;5008567;28;20673;-69
2024/03/13 16:41:41;;;;;;;1999.90;999.90;;;;;;;;;;5009743;28;20437;-68
2024/03/13 16:44:26;;;;;;;1999.90;999.90;;;;;;;;;;5011430;28;20579;-69
2024/03/13 16:47:10;;;;;;;1999.90;999.90;;;;;;;;;;5008600;28;20233;-69
2024/03/13 16:49:56;;;;;;;1999.90;999.90;;;;;;;;;;5010972;28;20229;-69
2024/03/13 16:52:41;;;;;;;1999.90;999.90;;;;;;;;;;5011159;28;20217;-68
2024/03/13 16:55:26;;;;;;;1999.90;999.90;;;;;;;;;;5011421;28;20206;-68
2024/03/13 16:58:11;;;;;;;1999.90;999.90;;;;;;;;;;5006763;28;20218;-68
2024/03/13 17:00:56;;;;;;;1999.90;999.90;;;;;;;;;;5010990;28;20316;-69
2024/03/13 17:03:44;;;;;;;1999.90;999.90;;;;;;;;;;5010786;28;20602;-70
2024/03/13 17:06:29;;;;;;;1999.90;999.90;;;;;;;;;;5008282;28;20425;-69
2024/03/13 17:09:15;;;;;;;1999.90;999.90;;;;;;;;;;5010242;28;20221;-70
2024/03/13 17:12:00;;;;;;;1999.90;999.90;;;;;;;;;;5007431;28;20202;-69
2024/03/13 17:14:45;;;;;;;1999.90;999.90;;;;;;;;;;5010013;28;20229;-69
2024/03/13 17:17:30;;;;;;;1999.90;999.90;;;;;;;;;;5009359;28;20872;-70
2024/03/13 17:20:16;;;;;;;1999.90;999.90;;;;;;;;;;5008961;28;20360;-70
2024/03/13 17:23:02;;;;;;;1999.90;999.90;;;;;;;;;;5008313;28;20206;-70
2024/03/13 17:25:47;;;;;;;1999.90;999.90;;;;;;;;;;5006793;28;20464;-71
2024/03/13 17:28:32;;;;;;;1999.90;999.90;;;;;;;;;;5008968;28;20220;-70
2024/03/13 17:31:18;;;;;;;1999.90;999.90;;;;;;;;;;5008584;28;20792;-70
2024/03/13 17:34:04;;;;;;;1999.90;999.90;;;;;;;;;;5007207;28;20287;-70
2024/03/13 17:36:49;;;;;;;1999.90;999.90;;;;;;;;;;5006404;28;20269;-70
2024/03/13 17:39:34;;;;;;;1999.90;999.90;;;;;;;;;;5010064;28;20226;-70
2024/03/13 17:42:19;;;;;;;1999.90;999.90;;;;;;;;;;5009307;28;20206;-69
2024/03/13 17:45:04;;;;;;;1999.90;999.90;;;;;;;;;;5009166;28;20206;-71
2024/03/13 17:47:49;;;;;;;1999.90;999.90;;;;;;;;;;5010091;28;20216;-70
2024/03/13 17:50:34;;;;;;;1999.90;999.90;;;;;;;;;;4991228;28;20313;-70
2024/03/13 17:53:19;;;;;;;1999.90;999.90;;;;;;;;;;4995809;28;20226;-70
2024/03/13 17:56:04;;;;;;;1999.90;999.90;;;;;;;;;;4994552;28;20730;-70
2024/03/13 17:58:49;;;;;;;1999.90;999.90;;;;;;;;;;4992590;28;20578;-69
2024/03/13 18:01:34;;;;;;;1999.90;999.90;;;;;;;;;;5002195;28;20210;-70
2024/03/13 18:04:19;;;;;;;1999.90;999.90;;;;;;;;;;5004808;28;20210;-70
2024/03/13 18:07:04;;;;;;;1999.90;999.90;;;;;;;;;;5011805;28;20210;-70
2024/03/13 18:09:49;;;;;;;1999.90;999.90;;;;;;;;;;5011955;28;20357;-70
2024/03/13 18:12:35;;;;;;;1999.90;999.90;;;;;;;;;;5011918;28;20210;-70
2024/03/13 18:15:19;;;;;;;1999.90;999.90;;;;;;;;;;5011840;28;20294;-70
2024/03/13 18:18:05;;;;;;;1999.90;999.90;;;;;;;;;;5010885;28;20487;-70
2024/03/13 18:20:51;;;;;;;1999.90;999.90;;;;;;;;;;5011785;28;20237;-70
2024/03/13 18:23:36;;;;;;;1999.90;999.90;;;;;;;;;;5011649;28;20205;-70
2024/03/13 18:26:21;;;;;;;1999.90;999.90;;;;;;;;;;5011891;28;20221;-70
2024/03/13 18:29:06;;;;;;;1999.90;999.90;;;;;;;;;;5006205;28;20338;-71
2024/03/13 18:31:51;;;;;;;1999.90;999.90;;;;;;;;;;5012332;28;20224;-70
2024/03/13 18:34:38;;;;;;;1999.90;999.90;;;;;;;;;;5009472;28;20227;-70
2024/03/13 18:37:24;;;;;;;1999.90;999.90;;;;;;;;;;5007963;28;20299;-70
2024/03/13 18:40:12;;;;;;;1999.90;999.90;;;;;;;;;;5008155;28;20716;-70
2024/03/13 18:42:57;;;;;;;1999.90;999.90;;;;;;;;;;5007906;28;20201;-70
2024/03/13 18:45:42;;;;;;;1999.90;999.90;;;;;;;;;;5009090;28;20256;-70
2024/03/13 18:48:27;;;;;;;1999.90;999.90;;;;;;;;;;5005949;28;20221;-70
2024/03/13 18:51:12;;;;;;;1999.90;999.90;;;;;;;;;;5007161;28;20233;-71
2024/03/13 18:53:57;;;;;;;1999.90;999.90;;;;;;;;;;5006474;28;20704;-70